首页
METAR-TAF:

METAR-TAF

机场 :

明尼阿波利斯-圣保罗国际机场

明尼阿波利斯, 明尼蘇達州, 美国

纬度: 44-52-59N, 经度: 093-13-44W, 海拔: 256米

当前天气观测

该预报发布于1小时和2分钟前的12:53 UTC
风速12节,风向
温度 -6°C
湿度 68%
气压 1029 hPa
能見度: 16.1公里
阴天层高于2800英尺

METAR: KMSP 171253Z 01012KT 10SM OVC028 M06/M11 A3040 RMK AO2 SLP308 T10561106

时间: 07:55 (13:55 UTC)

预报

该预报发布于2小时和24分钟前的11:31 UTC
预报有效从17日的 12点(UTC)到 18日的 18点(UTC)
风速10节,风向
能見度: 10公里
阴天层高于2500英尺
从 17日的 1600点(UTC)
风速10节,风向
能見度: 10公里
散云层高于2500英尺
从 18日的 0000点(UTC)
风速8节,风向西转西北
能見度: 10公里
天空无云
从 18日的 0700点(UTC)
风速5节,风向西转西南
能見度: 10公里
天空无云
从 18日的 1500点(UTC)
风速10节,风向西南
能見度: 10公里
散云层高于20000英尺

TAF: KMSP 171131Z 1712/1818 36010KT P6SM OVC025 FM171600 35010KT P6SM SCT025 FM180000 30008KT P6SM SKC FM180700 25005KT P6SM SKC FM181500 22010KT P6SM SCT200

超过4000个机场的气象观测和天气预报(METAR&TAF报告)。

可查询的气象台以黄色和红色小点在地图上表示。

将鼠标移到小点上方,可查看气象台名称。

然后点击查看天气观测和预报。

如需切换地图:点击带黑十字的绿色按钮放大地图;点击带横线的绿色按钮缩小地图;或者点击绿色箭头查看邻近地区的地图。


METAR-TAF: